createdAt,value
2019-04-19T00:01:13.717Z,4.60
2019-04-19T00:03:41.889Z,4.80
2019-04-19T00:06:31.679Z,4.93
2019-04-19T00:09:14.342Z,5.03
2019-04-19T00:11:39.502Z,5.23
2019-04-19T00:14:00.263Z,4.43
2019-04-19T00:16:29.886Z,4.40
2019-04-19T00:19:21.139Z,5.10
2019-04-19T00:21:54.107Z,4.53
2019-04-19T00:24:01.638Z,4.40
2019-04-19T00:26:31.731Z,5.30
2019-04-19T00:29:05.265Z,5.60
2019-04-19T00:31:42.783Z,4.60
2019-04-19T00:34:02.657Z,4.83
2019-04-19T00:36:32.088Z,5.40
2019-04-19T00:39:24.543Z,5.00
2019-04-19T00:42:17.755Z,4.77
2019-04-19T00:44:53.701Z,4.33
2019-04-19T00:47:19.798Z,4.40
2019-04-19T00:49:47.529Z,5.00
2019-04-19T00:52:14.824Z,5.00
2019-04-19T00:54:46.346Z,4.70
2019-04-19T00:57:14.707Z,4.50
2019-04-19T00:59:39.495Z,4.57
2019-04-19T01:02:10.662Z,5.30
2019-04-19T01:04:38.506Z,4.47
2019-04-19T01:07:09.672Z,4.57
2019-04-19T01:09:49.872Z,5.10
2019-04-19T01:12:20.636Z,5.40
2019-04-19T01:14:47.725Z,4.83
2019-04-19T01:17:23.052Z,5.27
2019-04-19T01:19:46.907Z,4.90
2019-04-19T01:22:17.323Z,5.20
2019-04-19T01:24:45.252Z,5.53
2019-04-19T01:27:19.369Z,4.70
2019-04-19T01:29:48.269Z,4.90
2019-04-19T01:32:17.047Z,5.27
2019-04-19T01:34:46.735Z,5.30
2019-04-19T01:37:19.511Z,5.27
2019-04-19T01:40:05.909Z,4.97
2019-04-19T01:42:35.953Z,4.37
2019-04-19T01:45:09.942Z,5.73
2019-04-19T01:47:54.269Z,5.10
2019-04-19T01:50:36.800Z,5.30
2019-04-19T01:53:12.143Z,6.13
2019-04-19T01:55:23.635Z,5.80
2019-04-19T01:57:47.249Z,4.90
2019-04-19T02:00:24.440Z,5.43
2019-04-19T02:02:52.641Z,5.20
2019-04-19T02:05:19.527Z,5.10
2019-04-19T02:07:55.058Z,5.17
2019-04-19T02:11:03.823Z,5.30
2019-04-19T02:13:32.980Z,5.10
2019-04-19T02:15:57.431Z,5.03
2019-04-19T02:18:29.417Z,5.50
2019-04-19T02:20:58.090Z,5.10
2019-04-19T02:23:28.172Z,5.47
2019-04-19T02:26:03.618Z,4.93
2019-04-19T02:28:33.820Z,5.33
2019-04-19T02:31:20.804Z,5.23
2019-04-19T02:33:53.169Z,5.30
2019-04-19T02:36:41.594Z,4.77
2019-04-19T02:39:05.101Z,4.93
2019-04-19T02:41:34.066Z,5.40
2019-04-19T02:44:09.283Z,4.87
2019-04-19T02:46:33.482Z,5.30
2019-04-19T02:49:02.022Z,5.17
2019-04-19T02:51:29.718Z,5.50
2019-04-19T02:54:06.653Z,5.67
2019-04-19T02:56:53.948Z,5.73
2019-04-19T02:59:37.174Z,5.20
2019-04-19T03:02:38.339Z,5.30
2019-04-19T03:04:55.227Z,5.57
2019-04-19T03:06:51.824Z,5.23
2019-04-19T03:09:18.126Z,5.60
2019-04-19T03:12:00.884Z,5.47
2019-04-19T03:14:31.832Z,4.80
2019-04-19T03:17:07.230Z,5.67
2019-04-19T03:19:33.167Z,5.77
2019-04-19T03:22:01.114Z,5.63
2019-04-19T03:24:41.271Z,6.10
2019-04-19T03:27:00.076Z,5.67
2019-04-19T03:29:29.336Z,4.37
2019-04-19T03:34:56.377Z,5.50
2019-04-19T03:37:06.578Z,5.23
2019-04-19T03:39:49.001Z,5.90
2019-04-19T03:42:34.978Z,5.27
2019-04-19T03:45:02.944Z,5.33
2019-04-19T03:47:41.218Z,6.00
2019-04-19T03:50:05.842Z,5.60
2019-04-19T03:52:32.113Z,6.20
2019-04-19T03:55:07.946Z,5.70
2019-04-19T03:57:29.755Z,5.57
2019-04-19T03:59:46.213Z,5.70
2019-04-19T04:02:20.077Z,5.30
2019-04-19T04:04:53.717Z,5.37
2019-04-19T04:07:21.860Z,5.80
2019-04-19T04:09:59.178Z,5.63
2019-04-19T04:13:20.456Z,5.33
2019-04-19T04:16:05.672Z,6.10
2019-04-19T04:18:21.790Z,6.33
2019-04-19T04:20:54.559Z,6.13
2019-04-19T04:23:29.962Z,5.33
2019-04-19T04:26:01.178Z,5.00
2019-04-19T04:28:41.617Z,5.50
2019-04-19T04:31:05.791Z,5.27
2019-04-19T04:33:36.221Z,5.67
2019-04-19T04:36:21.179Z,4.93
2019-04-19T04:38:35.824Z,5.57
2019-04-19T04:41:05.815Z,5.40
2019-04-19T04:43:41.675Z,5.47
2019-04-19T04:46:29.373Z,5.77
2019-04-19T04:48:58.021Z,5.23
2019-04-19T04:51:34.677Z,5.60
2019-04-19T04:54:04.098Z,5.30
2019-04-19T04:56:48.607Z,5.13
2019-04-19T04:59:13.105Z,5.67
2019-04-19T05:01:49.228Z,5.77
2019-04-19T05:04:26.300Z,6.43
2019-04-19T05:06:57.923Z,6.07
2019-04-19T05:09:36.089Z,6.00
2019-04-19T05:12:11.014Z,5.90
2019-04-19T05:14:32.691Z,6.20
2019-04-19T05:17:13.898Z,6.23
2019-04-19T05:19:41.522Z,5.80
2019-04-19T05:22:01.518Z,5.93
2019-04-19T05:24:33.844Z,6.50
2019-04-19T05:27:10.403Z,5.30
2019-04-19T05:29:30.639Z,5.40
2019-04-19T05:31:54.736Z,6.50
2019-04-19T05:34:44.115Z,5.67
2019-04-19T05:37:08.052Z,5.33
2019-04-19T05:39:48.497Z,5.40
2019-04-19T05:42:21.406Z,5.10
2019-04-19T05:45:24.655Z,5.03
2019-04-19T05:47:30.602Z,5.30
2019-04-19T05:50:12.057Z,5.30
2019-04-19T05:52:39.875Z,4.87
2019-04-19T05:54:51.688Z,5.03
2019-04-19T05:57:39.980Z,5.00
2019-04-19T05:59:59.546Z,5.17
2019-04-19T06:02:28.378Z,4.77
2019-04-19T06:05:15.598Z,4.97
2019-04-19T06:07:39.059Z,5.37
2019-04-19T06:09:54.055Z,4.90
2019-04-19T06:12:28.033Z,4.50
2019-04-19T06:15:14.976Z,5.23
2019-04-19T06:17:52.114Z,5.40
2019-04-19T06:20:20.675Z,5.50
2019-04-19T06:22:53.453Z,4.90
2019-04-19T06:25:29.127Z,4.67
2019-04-19T06:28:11.759Z,4.87
2019-04-19T06:30:27.213Z,4.93
2019-04-19T06:32:56.183Z,5.00
2019-04-19T06:35:22.566Z,4.83
2019-04-19T06:37:40.472Z,4.97
2019-04-19T06:40:19.086Z,4.87
2019-04-19T06:42:50.712Z,4.90
2019-04-19T06:45:31.749Z,5.07
2019-04-19T06:47:50.747Z,5.30
2019-04-19T06:50:29.572Z,5.00
2019-04-19T06:52:53.243Z,5.33
2019-04-19T06:55:28.534Z,4.30
2019-04-19T06:58:06.710Z,4.50
2019-04-19T07:00:41.585Z,4.93
2019-04-19T07:02:58.514Z,4.83
2019-04-19T07:05:37.300Z,4.70
2019-04-19T07:08:40.083Z,5.47
2019-04-19T07:11:06.154Z,5.33
2019-04-19T07:13:14.056Z,5.00
2019-04-19T07:15:57.594Z,4.93
2019-04-19T07:18:17.795Z,5.43
2019-04-19T07:20:54.725Z,4.73
2019-04-19T07:23:21.201Z,5.03
2019-04-19T07:25:55.087Z,4.80
2019-04-19T07:28:09.791Z,4.60
2019-04-19T07:30:34.957Z,5.10
2019-04-19T07:33:09.390Z,4.80
2019-04-19T07:35:57.513Z,4.60
2019-04-19T07:38:43.081Z,5.00
2019-04-19T07:40:54.296Z,4.80
2019-04-19T07:43:25.185Z,5.30
2019-04-19T07:46:18.116Z,6.10
2019-04-19T07:48:47.762Z,4.80
2019-04-19T07:51:24.126Z,5.67
2019-04-19T07:53:50.836Z,4.60
2019-04-19T07:59:14.905Z,4.87
2019-04-19T08:01:58.021Z,4.60
2019-04-19T08:09:20.189Z,4.60
2019-04-19T08:11:58.719Z,4.73
2019-04-19T08:17:29.174Z,4.53
2019-04-19T08:29:12.144Z,5.33
2019-04-19T08:31:27.619Z,4.70
2019-04-19T08:33:56.692Z,4.93
2019-04-19T08:36:32.148Z,5.20
2019-04-19T08:39:19.029Z,4.60
2019-04-19T08:41:48.032Z,5.00
2019-04-19T08:44:16.396Z,5.03
2019-04-19T08:46:34.715Z,5.53
2019-04-19T08:49:22.859Z,4.93
2019-04-19T08:52:00.027Z,4.97
2019-04-19T08:54:47.446Z,5.00
2019-04-19T08:57:04.817Z,5.20
2019-04-19T08:59:51.579Z,4.40
2019-04-19T09:02:21.116Z,4.60
2019-04-19T09:04:52.358Z,4.10
2019-04-19T09:07:43.398Z,4.70
2019-04-19T09:10:10.959Z,4.57
2019-04-19T09:12:23.710Z,4.57
2019-04-19T09:14:52.026Z,4.90
2019-04-19T09:17:34.815Z,5.13
2019-04-19T09:20:07.399Z,5.00
2019-04-19T09:22:22.998Z,4.40
2019-04-19T09:24:47.869Z,4.23
2019-04-19T09:27:32.928Z,4.43
2019-04-19T09:29:59.248Z,4.00
2019-04-19T09:32:15.428Z,4.10
2019-04-19T09:34:47.095Z,4.03
2019-04-19T09:37:20.122Z,4.37
2019-04-19T09:39:52.345Z,4.73
2019-04-19T09:42:21.974Z,4.47
2019-04-19T09:44:48.094Z,3.87
2019-04-19T09:47:14.334Z,4.27
2019-04-19T09:49:59.634Z,4.90
2019-04-19T09:52:35.619Z,4.90
2019-04-19T09:55:11.353Z,4.57
2019-04-19T09:57:35.631Z,4.77
2019-04-19T09:59:47.595Z,4.83
2019-04-19T10:02:28.986Z,4.20
2019-04-19T10:04:53.328Z,4.60
2019-04-19T10:07:23.546Z,4.20
2019-04-19T10:09:57.082Z,4.17
2019-04-19T10:12:23.209Z,4.30
2019-04-19T10:14:53.513Z,4.23
2019-04-19T10:17:24.774Z,4.13
2019-04-19T10:19:55.038Z,4.03
2019-04-19T10:22:28.447Z,4.10
2019-04-19T10:24:58.803Z,4.90
2019-04-19T10:27:29.594Z,4.07
2019-04-19T10:29:59.824Z,4.53
2019-04-19T10:32:30.915Z,4.53
2019-04-19T10:35:02.031Z,4.63
2019-04-19T10:37:31.537Z,4.50
2019-04-19T10:40:02.016Z,3.90
2019-04-19T10:42:31.607Z,3.87
2019-04-19T10:45:00.694Z,4.27
2019-04-19T10:47:31.591Z,4.20
2019-04-19T10:50:14.223Z,4.50
2019-04-19T10:52:31.534Z,4.00
2019-04-19T10:55:00.501Z,3.93
2019-04-19T10:57:29.929Z,3.63
2019-04-19T11:00:00.924Z,4.03
2019-04-19T11:02:34.448Z,3.90
2019-04-19T11:05:07.249Z,3.97
2019-04-19T11:07:39.583Z,3.67
2019-04-19T11:10:07.490Z,3.57
2019-04-19T11:12:36.546Z,3.20
2019-04-19T11:15:06.678Z,3.60
2019-04-19T11:17:35.918Z,5.13
2019-04-19T11:20:21.586Z,3.87
2019-04-19T11:22:37.687Z,4.23
2019-04-19T11:25:08.017Z,4.10
2019-04-19T11:27:37.369Z,3.83
2019-04-19T11:30:15.060Z,4.10
2019-04-19T11:32:49.100Z,4.30
2019-04-19T11:35:19.248Z,4.07
2019-04-19T11:37:49.113Z,3.83
2019-04-19T11:40:19.579Z,3.90
2019-04-19T11:42:48.985Z,3.70
2019-04-19T11:45:18.185Z,3.67
2019-04-19T11:47:47.458Z,3.73
2019-04-19T11:50:17.841Z,3.80
2019-04-19T11:53:06.228Z,3.33
2019-04-19T11:55:38.189Z,3.33
2019-04-19T11:58:08.557Z,4.00
2019-04-19T12:01:00.154Z,3.60
2019-04-19T12:03:30.397Z,3.83
2019-04-19T12:06:00.298Z,3.83
2019-04-19T12:08:29.224Z,3.77
2019-04-19T12:10:58.091Z,3.10
2019-04-19T12:13:27.447Z,3.60
2019-04-19T12:15:58.909Z,4.60
2019-04-19T12:18:28.545Z,3.80
2019-04-19T12:20:57.541Z,3.80
2019-04-19T12:23:27.582Z,3.50
2019-04-19T12:25:57.504Z,3.30
2019-04-19T12:28:27.781Z,3.53
2019-04-19T12:30:58.632Z,3.13
2019-04-19T12:33:27.513Z,3.60
2019-04-19T12:35:57.399Z,3.00
2019-04-19T12:38:26.538Z,2.80
2019-04-19T12:40:58.416Z,2.83
2019-04-19T12:43:27.909Z,3.70
2019-04-19T12:45:57.237Z,3.30
2019-04-19T12:48:27.545Z,3.40
2019-04-19T12:50:58.202Z,3.03
2019-04-19T12:53:28.526Z,3.33
2019-04-19T12:55:59.958Z,2.70
2019-04-19T12:58:30.223Z,3.60
2019-04-19T13:01:18.265Z,3.40
2019-04-19T13:03:56.649Z,2.97
2019-04-19T13:06:27.491Z,2.93
2019-04-19T13:08:57.111Z,3.23
2019-04-19T13:11:27.242Z,3.30
2019-04-19T13:13:57.518Z,3.30
2019-04-19T13:16:26.695Z,2.67
2019-04-19T13:18:56.267Z,2.90
2019-04-19T13:21:26.203Z,3.10
2019-04-19T13:23:56.059Z,2.90
2019-04-19T13:26:25.283Z,2.90
2019-04-19T13:28:55.423Z,2.43
2019-04-19T13:31:24.998Z,3.00
2019-04-19T13:33:55.195Z,2.90
2019-04-19T13:36:34.300Z,2.97
2019-04-19T13:39:23.459Z,3.10
2019-04-19T13:42:12.710Z,3.23
2019-04-19T13:44:43.101Z,3.10
2019-04-19T13:47:12.964Z,3.80
2019-04-19T13:49:42.466Z,2.63
2019-04-19T13:52:12.638Z,3.53
2019-04-19T13:54:42.990Z,3.27
2019-04-19T13:57:13.278Z,3.10
2019-04-19T13:59:48.153Z,3.20
2019-04-19T14:02:14.521Z,2.47
2019-04-19T14:04:44.168Z,2.77
2019-04-19T14:07:13.244Z,2.80
2019-04-19T14:09:43.355Z,2.70
2019-04-19T14:12:13.367Z,2.90
2019-04-19T14:14:42.890Z,3.03
2019-04-19T14:17:11.838Z,3.10
2019-04-19T14:19:40.904Z,3.40
2019-04-19T14:22:11.046Z,2.77
2019-04-19T14:24:40.276Z,2.80
2019-04-19T14:27:09.409Z,2.80
2019-04-19T14:29:39.361Z,3.30
2019-04-19T14:32:09.350Z,2.60
2019-04-19T14:34:39.340Z,2.80
2019-04-19T14:37:11.083Z,3.17
2019-04-19T14:39:40.427Z,3.00
2019-04-19T14:42:09.654Z,2.93
2019-04-19T14:44:39.827Z,2.87
2019-04-19T14:47:08.826Z,2.70
2019-04-19T14:49:38.806Z,2.90
2019-04-19T14:52:07.897Z,3.00
2019-04-19T14:54:38.076Z,2.90
2019-04-19T14:57:07.330Z,3.10
2019-04-19T14:59:36.755Z,3.13
2019-04-19T15:02:24.878Z,3.23
2019-04-19T15:05:07.561Z,3.30
2019-04-19T15:07:36.636Z,3.00
2019-04-19T15:10:05.905Z,3.40
2019-04-19T15:12:36.468Z,3.00
2019-04-19T15:15:06.228Z,3.17
2019-04-19T15:17:35.362Z,2.90
2019-04-19T15:20:05.799Z,2.90
2019-04-19T15:22:34.776Z,2.70
2019-04-19T15:25:04.537Z,2.80
2019-04-19T15:27:34.813Z,2.67
2019-04-19T15:30:05.347Z,2.60
2019-04-19T15:32:34.492Z,2.90
2019-04-19T15:35:03.708Z,2.63
2019-04-19T15:37:33.856Z,2.83
2019-04-19T15:40:04.191Z,3.07
2019-04-19T15:42:34.496Z,3.03
2019-04-19T15:45:04.900Z,3.20
2019-04-19T15:47:34.775Z,3.00
2019-04-19T15:50:04.075Z,2.90
2019-04-19T15:52:33.013Z,3.10
2019-04-19T15:55:02.035Z,2.93
2019-04-19T15:57:32.140Z,3.13
2019-04-19T16:00:02.445Z,2.73
2019-04-19T16:02:46.248Z,3.20
2019-04-19T16:05:34.221Z,3.63
2019-04-19T16:08:10.858Z,2.87
2019-04-19T16:10:58.424Z,3.17
2019-04-19T16:13:27.839Z,3.13
2019-04-19T16:15:58.263Z,3.50
2019-04-19T16:18:28.514Z,3.30
2019-04-19T16:20:59.086Z,2.90
2019-04-19T16:23:28.197Z,3.23
2019-04-19T16:25:57.235Z,3.17
2019-04-19T16:28:27.378Z,3.00
2019-04-19T16:30:56.747Z,3.60
2019-04-19T16:33:25.751Z,3.60
2019-04-19T16:35:54.653Z,3.10
2019-04-19T16:38:24.236Z,3.70
2019-04-19T16:40:54.695Z,3.33
2019-04-19T16:43:23.922Z,3.30
2019-04-19T16:46:03.212Z,2.87
2019-04-19T16:48:24.306Z,3.07
2019-04-19T16:50:54.517Z,3.47
2019-04-19T16:53:23.986Z,2.90
2019-04-19T16:55:53.900Z,3.43
2019-04-19T16:58:24.326Z,3.43
2019-04-19T17:00:54.571Z,2.83
2019-04-19T17:03:23.606Z,3.10
2019-04-19T17:05:55.415Z,2.67
2019-04-19T17:08:23.062Z,3.50
2019-04-19T17:10:51.837Z,3.20
2019-04-19T17:13:20.814Z,3.10
2019-04-19T17:16:05.069Z,2.70
2019-04-19T17:18:45.780Z,3.10
2019-04-19T17:21:16.014Z,3.10
2019-04-19T17:23:45.036Z,3.13
2019-04-19T17:26:15.018Z,2.70
2019-04-19T17:28:44.329Z,3.33
2019-04-19T17:31:14.121Z,3.30
2019-04-19T17:33:44.205Z,3.17
2019-04-19T17:36:14.291Z,3.47
2019-04-19T17:38:46.860Z,3.10
2019-04-19T17:41:14.545Z,2.80
2019-04-19T17:43:43.794Z,2.67
2019-04-19T17:46:12.725Z,3.90
2019-04-19T17:48:41.669Z,3.10
2019-04-19T17:51:11.592Z,3.60
2019-04-19T17:53:45.833Z,3.10
2019-04-19T17:56:11.299Z,3.40
2019-04-19T17:58:40.391Z,3.90
2019-04-19T18:01:10.421Z,3.40
2019-04-19T18:03:40.699Z,3.70
2019-04-19T18:06:10.089Z,3.70
2019-04-19T18:08:39.840Z,3.10
2019-04-19T18:11:09.981Z,3.47
2019-04-19T18:13:41.373Z,3.27
2019-04-19T18:16:10.493Z,3.40
2019-04-19T18:18:45.712Z,3.10
2019-04-19T18:21:10.410Z,3.93
2019-04-19T18:23:46.342Z,2.70
2019-04-19T18:26:18.137Z,3.33
2019-04-19T18:28:44.149Z,3.00
2019-04-19T18:31:12.830Z,3.40
2019-04-19T18:34:01.338Z,3.10
2019-04-19T18:36:25.713Z,3.30
2019-04-19T18:38:54.029Z,3.33
2019-04-19T18:41:23.195Z,3.10
2019-04-19T18:44:05.929Z,3.30
2019-04-19T18:46:23.022Z,3.23
2019-04-19T18:48:52.037Z,3.67
2019-04-19T18:51:34.156Z,3.27
2019-04-19T18:54:05.862Z,3.40
2019-04-19T18:56:25.451Z,3.30
2019-04-19T18:58:54.238Z,3.17
2019-04-19T19:01:31.055Z,3.60
2019-04-19T19:03:54.084Z,3.90
2019-04-19T19:06:30.491Z,3.33
2019-04-19T19:09:01.871Z,3.50
2019-04-19T19:11:26.127Z,3.70
2019-04-19T19:13:55.418Z,3.43
2019-04-19T19:16:26.038Z,4.20
2019-04-19T19:18:58.080Z,3.20
2019-04-19T19:21:32.903Z,3.63
2019-04-19T19:24:18.639Z,3.00
2019-04-19T19:26:34.528Z,3.10
2019-04-19T19:28:58.299Z,3.50
2019-04-19T19:31:27.337Z,3.90
2019-04-19T19:33:58.031Z,4.00
2019-04-19T19:36:34.235Z,3.10
2019-04-19T19:39:08.545Z,3.30
2019-04-19T19:42:21.838Z,3.60
2019-04-19T19:44:13.353Z,3.60
2019-04-19T19:47:01.839Z,3.10
2019-04-19T19:49:36.687Z,3.47
2019-04-19T19:51:49.503Z,3.80
2019-04-19T19:57:03.067Z,3.40
2019-04-19T19:59:22.764Z,4.03
2019-04-19T20:01:54.913Z,3.93
2019-04-19T20:04:13.201Z,3.47
2019-04-19T20:06:51.944Z,3.60
2019-04-19T20:09:16.946Z,4.23
2019-04-19T20:11:45.724Z,3.93
2019-04-19T20:14:19.431Z,3.90
2019-04-19T20:16:45.527Z,3.80
2019-04-19T20:19:17.326Z,3.97
2019-04-19T20:21:53.022Z,3.90
2019-04-19T20:24:31.978Z,3.53
2019-04-19T20:27:01.743Z,3.50
2019-04-19T20:29:23.950Z,3.70
2019-04-19T20:31:50.395Z,3.33
2019-04-19T20:34:24.618Z,3.60
2019-04-19T20:36:51.372Z,3.60
2019-04-19T20:39:27.154Z,3.30
2019-04-19T20:41:54.424Z,3.67
2019-04-19T20:44:39.235Z,3.80
2019-04-19T20:46:53.011Z,3.50
2019-04-19T20:49:23.485Z,4.23
2019-04-19T20:52:04.390Z,3.97
2019-04-19T20:55:07.340Z,4.90
2019-04-19T20:57:29.934Z,4.10
2019-04-19T20:59:50.248Z,4.37
2019-04-19T21:02:20.449Z,3.97
2019-04-19T21:04:50.242Z,4.53
2019-04-19T21:07:18.044Z,4.87
2019-04-19T21:09:45.509Z,4.73
2019-04-19T21:12:16.944Z,4.30
2019-04-19T21:14:46.996Z,4.27
2019-04-19T21:17:16.880Z,4.93
2019-04-19T21:19:48.703Z,4.50
2019-04-19T21:22:23.715Z,3.90
2019-04-19T21:25:02.005Z,3.80
2019-04-19T21:27:24.791Z,4.60
2019-04-19T21:29:49.948Z,4.60
2019-04-19T21:32:24.309Z,5.40
2019-04-19T21:34:50.156Z,4.77
2019-04-19T21:37:23.278Z,4.50
2019-04-19T21:39:51.898Z,5.23
2019-04-19T21:42:22.709Z,4.47
2019-04-19T21:44:56.707Z,4.20
2019-04-19T21:47:24.628Z,4.10
2019-04-19T21:49:57.061Z,4.30
2019-04-19T21:52:27.245Z,4.40
2019-04-19T21:55:10.283Z,4.37
2019-04-19T21:57:31.853Z,4.20
2019-04-19T21:59:56.580Z,4.13
2019-04-19T22:02:34.451Z,4.30
2019-04-19T22:04:59.106Z,4.20
2019-04-19T22:07:32.980Z,4.20
2019-04-19T22:10:00.641Z,4.53
2019-04-19T22:12:30.366Z,3.93
2019-04-19T22:15:04.788Z,4.20
2019-04-19T22:17:30.215Z,4.37
2019-04-19T22:20:04.421Z,3.90
2019-04-19T22:22:32.123Z,3.90
2019-04-19T22:25:07.307Z,4.23
2019-04-19T22:27:31.665Z,3.90
2019-04-19T22:30:00.590Z,3.57
2019-04-19T22:32:29.454Z,4.17
2019-04-19T22:35:01.885Z,4.57
2019-04-19T22:37:32.313Z,4.90
2019-04-19T22:40:00.644Z,4.60
2019-04-19T22:42:31.873Z,3.80
2019-04-19T22:45:00.765Z,3.43
2019-04-19T22:47:32.431Z,4.03
2019-04-19T22:50:00.421Z,3.80
2019-04-19T22:52:29.281Z,3.80
2019-04-19T22:55:06.305Z,4.17
2019-04-19T22:57:37.865Z,3.80
2019-04-19T23:00:01.512Z,4.20
2019-04-19T23:02:50.237Z,4.17
2019-04-19T23:05:27.014Z,4.47
2019-04-19T23:07:55.735Z,4.07
2019-04-19T23:10:24.472Z,3.90
2019-04-19T23:12:55.587Z,3.90
2019-04-19T23:15:29.491Z,3.90
2019-04-19T23:17:56.407Z,4.20
2019-04-19T23:20:29.267Z,3.67
2019-04-19T23:22:57.460Z,3.83
2019-04-19T23:25:33.651Z,3.77
2019-04-19T23:28:09.336Z,3.63
2019-04-19T23:30:30.787Z,3.67
2019-04-19T23:33:05.843Z,4.23
2019-04-19T23:35:33.735Z,3.90
2019-04-19T23:37:59.473Z,3.90
2019-04-19T23:40:33.596Z,3.23
2019-04-19T23:43:00.221Z,4.07
2019-04-19T23:45:32.980Z,3.23
2019-04-19T23:48:00.399Z,3.20
2019-04-19T23:50:33.675Z,3.17
2019-04-19T23:53:02.504Z,3.43
2019-04-19T23:55:30.637Z,3.10
2019-04-19T23:58:01.166Z,3.23
